Time;durP1;ratioP1;P1;durP2;ratioP2;P2;SDS_P1;SDS_P2;PMS_P1;PMS_P2;Temp;Humidity;BMP_temperature;BMP_pressure;BME280_temperature;BME280_humidity;BME280_pressure;Samples;Min_cycle;Max_cycle;Signal;HPM_P1;HPM_P2
2021/01/26 00:01:11;;;;;;;22.95;14.55;;;0.80;80.80;;;;;;5055267;28;20040;-70
2021/01/26 00:03:37;;;;;;;22.30;14.13;;;0.80;80.60;;;;;;5055271;28;20063;-70
2021/01/26 00:06:02;;;;;;;26.27;14.25;;;0.90;80.60;;;;;;5054847;28;20017;-69
2021/01/26 00:08:28;;;;;;;24.38;14.38;;;0.80;80.50;;;;;;5055263;28;20488;-70
2021/01/26 00:10:54;;;;;;;26.63;15.32;;;0.90;80.50;;;;;;5053947;28;20116;-70
2021/01/26 00:13:19;;;;;;;21.92;13.38;;;0.90;80.80;;;;;;5055063;28;20025;-70
2021/01/26 00:15:49;;;;;;;22.52;13.68;;;0.80;80.80;;;;;;5053855;28;20021;-70
2021/01/26 00:18:14;;;;;;;24.30;14.18;;;0.80;80.90;;;;;;5054792;28;20193;-71
2021/01/26 00:20:40;;;;;;;23.13;14.13;;;0.70;80.90;;;;;;5054954;28;20056;-70
2021/01/26 00:23:06;;;;;;;25.75;14.73;;;0.80;81.30;;;;;;5054944;28;20070;-70
2021/01/26 00:25:35;;;;;;;25.92;14.93;;;0.80;81.10;;;;;;5054955;28;20414;-70
2021/01/26 00:28:01;;;;;;;26.95;14.65;;;0.80;81.00;;;;;;5055182;28;20158;-70
2021/01/26 00:30:30;;;;;;;27.30;15.18;;;0.80;81.50;;;;;;5054795;28;20063;-70
2021/01/26 00:33:00;;;;;;;31.15;16.75;;;0.80;81.00;;;;;;5053837;28;20060;-70
2021/01/26 00:35:31;;;;;;;23.55;15.30;;;0.80;81.50;;;;;;5054996;28;20021;-70
2021/01/26 00:37:58;;;;;;;26.58;15.57;;;0.80;81.30;;;;;;5053475;28;20032;-70
2021/01/26 00:40:23;;;;;;;26.40;15.43;;;0.80;81.40;;;;;;5053737;28;20036;-70
2021/01/26 00:42:49;;;;;;;22.08;14.30;;;0.80;81.20;;;;;;5054739;28;20455;-70
2021/01/26 00:45:15;;;;;;;25.42;15.07;;;0.80;81.50;;;;;;5053705;28;20439;-70
2021/01/26 00:47:41;;;;;;;27.05;14.63;;;0.80;81.50;;;;;;5053178;28;20037;-70
2021/01/26 00:50:08;;;;;;;23.42;14.80;;;0.80;81.40;;;;;;5054876;28;20047;-70
2021/01/26 00:52:34;;;;;;;22.10;14.43;;;0.70;81.40;;;;;;5054744;28;20028;-70
2021/01/26 00:54:59;;;;;;;25.50;14.55;;;0.60;81.70;;;;;;5055375;28;20025;-70
2021/01/26 00:57:25;;;;;;;24.63;14.65;;;0.50;82.00;;;;;;5056301;28;20035;-70
2021/01/26 00:59:51;;;;;;;24.92;14.82;;;0.50;82.30;;;;;;5057537;28;20025;-70
2021/01/26 01:02:17;;;;;;;24.25;13.75;;;0.40;82.30;;;;;;5055069;28;20033;-70
2021/01/26 01:04:44;;;;;;;22.45;14.13;;;0.50;82.70;;;;;;5055572;28;20060;-69
2021/01/26 01:07:10;;;;;;;26.30;14.35;;;0.40;82.70;;;;;;5052720;28;20051;-70
2021/01/26 01:09:36;;;;;;;21.35;14.10;;;0.40;82.30;;;;;;5053989;28;20025;-70
2021/01/26 01:12:01;;;;;;;23.67;14.18;;;0.40;82.50;;;;;;5054089;28;20104;-70
2021/01/26 01:14:27;;;;;;;24.17;12.77;;;0.40;83.00;;;;;;5054283;28;20450;-70
2021/01/26 01:16:54;;;;;;;20.90;13.57;;;0.40;82.80;;;;;;5052562;28;20060;-70
2021/01/26 01:19:22;;;;;;;20.80;13.52;;;0.30;82.60;;;;;;5054651;28;20090;-70
2021/01/26 01:21:48;;;;;;;22.33;13.52;;;0.30;82.90;;;;;;5054647;28;20083;-70
2021/01/26 01:24:14;;;;;;;23.23;13.35;;;0.20;83.10;;;;;;5053798;28;20021;-70
2021/01/26 01:26:40;;;;;;;22.50;13.57;;;0.20;83.50;;;;;;5053463;28;20021;-70
2021/01/26 01:29:06;;;;;;;20.77;13.13;;;0.20;83.30;;;;;;5052399;28;20032;-70
2021/01/26 01:31:32;;;;;;;21.13;13.15;;;0.10;83.40;;;;;;5053479;28;20478;-70
2021/01/26 01:33:58;;;;;;;19.95;13.23;;;0.10;83.70;;;;;;5053493;28;20063;-70
2021/01/26 01:36:23;;;;;;;20.23;12.88;;;0.10;83.80;;;;;;5051773;28;20086;-69
2021/01/26 01:38:49;;;;;;;20.50;12.73;;;0.20;83.40;;;;;;5053453;28;20020;-69
2021/01/26 01:41:14;;;;;;;22.50;13.15;;;0.30;83.30;;;;;;5069639;22;20060;-67
2021/01/26 01:43:40;;;;;;;19.83;12.93;;;0.30;83.00;;;;;;5072627;28;20025;-67
2021/01/26 01:46:13;;;;;;;21.90;12.52;;;0.40;82.90;;;;;;5073023;28;20466;-67
2021/01/26 01:48:40;;;;;;;19.58;12.70;;;0.30;82.80;;;;;;5073398;28;20040;-67
2021/01/26 01:51:13;;;;;;;16.65;12.02;;;0.30;82.60;;;;;;5073342;28;20025;-67
2021/01/26 01:53:43;;;;;;;19.48;12.15;;;0.30;82.70;;;;;;5068249;28;20016;-67
2021/01/26 01:56:14;;;;;;;24.63;12.23;;;0.30;82.60;;;;;;5057085;28;20020;-67
2021/01/26 01:58:44;;;;;;;20.58;12.80;;;0.30;82.90;;;;;;5073304;28;20636;-67
2021/01/26 02:01:14;;;;;;;17.48;10.90;;;0.30;82.60;;;;;;5073050;28;20040;-68
2021/01/26 02:03:47;;;;;;;20.10;12.93;;;0.30;82.50;;;;;;5073127;28;20020;-67
2021/01/26 02:06:15;;;;;;;19.35;11.63;;;0.20;82.70;;;;;;5055855;28;20016;-67
2021/01/26 02:08:56;;;;;;;21.15;12.27;;;0.20;82.60;;;;;;5072849;28;20032;-66
2021/01/26 02:11:22;;;;;;;20.25;11.63;;;0.30;82.30;;;;;;5072791;28;20036;-66
2021/01/26 02:13:49;;;;;;;19.15;12.57;;;0.30;82.60;;;;;;5072717;28;20032;-67
2021/01/26 02:16:43;;;;;;;17.08;11.65;;;0.30;82.30;;;;;;5072418;28;20017;-67
2021/01/26 02:19:27;;;;;;;17.48;10.98;;;0.30;82.40;;;;;;5063770;28;20028;-67
2021/01/26 02:22:30;;;;;;;19.80;11.55;;;0.40;82.60;;;;;;5072659;28;20502;-68
2021/01/26 02:25:18;;;;;;;21.85;11.70;;;0.50;82.30;;;;;;5064215;28;20482;-69
2021/01/26 02:28:01;;;;;;;18.05;12.18;;;0.50;81.80;;;;;;5048902;28;20051;-68
2021/01/26 02:30:51;;;;;;;19.85;12.68;;;0.40;81.80;;;;;;5072551;28;20033;-67
2021/01/26 02:33:42;;;;;;;18.80;12.52;;;0.50;81.90;;;;;;5072246;28;20052;-68
2021/01/26 02:36:26;;;;;;;17.92;11.32;;;0.50;81.80;;;;;;5050035;28;20033;-68
2021/01/26 02:39:19;;;;;;;20.85;12.32;;;0.50;82.00;;;;;;5072347;28;20063;-67
2021/01/26 02:42:10;;;;;;;19.13;12.45;;;0.50;81.80;;;;;;5068303;28;20032;-67
2021/01/26 02:45:00;;;;;;;22.40;12.30;;;0.50;81.50;;;;;;5072271;28;20107;-67
2021/01/26 02:47:41;;;;;;;18.42;11.98;;;0.50;81.50;;;;;;5071776;28;20103;-67
2021/01/26 02:50:27;;;;;;;16.60;9.48;;;0.40;81.60;;;;;;5037910;28;20019;-68
2021/01/26 02:53:08;;;;;;;16.63;11.52;;;0.40;81.90;;;;;;5060900;28;20020;-67
2021/01/26 02:55:46;;;;;;;;;;;0.40;81.70;;;;;;5072521;28;20074;-67
2021/01/26 02:58:34;;;;;;;23.30;12.70;;;0.40;81.50;;;;;;5056325;28;20017;-67
2021/01/26 03:01:02;;;;;;;20.35;11.70;;;0.40;81.40;;;;;;5061741;28;20143;-67
2021/01/26 03:03:45;;;;;;;19.35;12.18;;;0.40;81.20;;;;;;5058821;28;20025;-67
2021/01/26 03:06:16;;;;;;;21.38;12.50;;;0.40;81.30;;;;;;5055926;28;20024;-67
2021/01/26 03:09:03;;;;;;;22.45;13.63;;;0.30;81.50;;;;;;5072721;28;20485;-66
2021/01/26 03:11:53;;;;;;;17.00;11.73;;;0.40;81.60;;;;;;5071856;28;20051;-67
2021/01/26 03:14:29;;;;;;;24.10;13.90;;;0.30;81.30;;;;;;5039307;28;20025;-67
2021/01/26 03:17:15;;;;;;;20.80;12.82;;;0.30;81.60;;;;;;5071608;28;20339;-68
2021/01/26 03:19:47;;;;;;;19.77;11.77;;;0.30;80.90;;;;;;5071725;28;20416;-67
2021/01/26 03:22:15;;;;;;;19.83;12.73;;;0.30;80.90;;;;;;5071352;28;20120;-67
2021/01/26 03:24:44;;;;;;;17.23;11.60;;;0.30;81.40;;;;;;5071547;28;20055;-67
2021/01/26 03:27:13;;;;;;;26.90;13.00;;;0.30;81.50;;;;;;5071182;28;20028;-68
2021/01/26 03:29:42;;;;;;;20.67;12.95;;;0.20;81.10;;;;;;5064928;28;20120;-68
2021/01/26 03:32:16;;;;;;;22.00;13.07;;;0.20;81.20;;;;;;5054120;28;20017;-67
2021/01/26 03:34:42;;;;;;;19.42;12.52;;;0.10;81.20;;;;;;5071365;28;20108;-67
2021/01/26 03:37:08;;;;;;;22.33;13.02;;;0.00;81.60;;;;;;5071124;28;20072;-68
2021/01/26 03:39:34;;;;;;;20.95;12.93;;;0.10;81.50;;;;;;5071733;28;20032;-66
2021/01/26 03:42:00;;;;;;;21.10;13.13;;;0.00;81.40;;;;;;5071363;28;20032;-67
2021/01/26 03:44:27;;;;;;;22.55;13.23;;;0.00;81.90;;;;;;5071435;28;20066;-68
2021/01/26 03:47:04;;;;;;;19.90;12.82;;;-3276.70;82.00;;;;;;5063284;28;20029;-66
2021/01/26 03:50:12;;;;;;;20.90;14.38;;;-3276.70;82.50;;;;;;5065236;28;20017;-66
2021/01/26 03:53:16;;;;;;;20.98;13.38;;;-3276.60;82.20;;;;;;5059432;28;20474;-67
2021/01/26 03:55:45;;;;;;;21.33;11.82;;;-3276.60;82.00;;;;;;5009322;28;20026;-68
2021/01/26 03:58:42;;;;;;;19.77;12.00;;;-3276.60;82.70;;;;;;5051892;28;20413;-67
2021/01/26 04:01:47;;;;;;;18.67;12.80;;;-3276.50;82.40;;;;;;5071124;28;20489;-70
2021/01/26 04:04:20;;;;;;;21.30;12.55;;;-3276.30;83.30;;;;;;5055976;28;20559;-67
2021/01/26 04:06:57;;;;;;;19.83;12.77;;;-3276.30;83.30;;;;;;5071014;28;20255;-68
2021/01/26 04:09:27;;;;;;;21.45;12.43;;;-3276.20;83.60;;;;;;5071169;28;20393;-67
2021/01/26 04:12:09;;;;;;;18.90;11.50;;;-3276.20;83.60;;;;;;5071127;28;20032;-68
2021/01/26 04:14:47;;;;;;;21.20;12.52;;;-3276.00;83.60;;;;;;5071235;28;20020;-68
2021/01/26 04:17:20;;;;;;;20.58;12.57;;;-3275.90;84.40;;;;;;5070780;28;20025;-67
2021/01/26 04:19:53;;;;;;;43.15;23.60;;;-3275.90;84.50;;;;;;5070997;28;20024;-67
2021/01/26 04:22:19;;;;;;;111.95;49.45;;;-3275.80;84.70;;;;;;5070768;28;20036;-68
2021/01/26 04:24:44;;;;;;;19.85;11.23;;;-3275.80;84.90;;;;;;5070731;28;20028;-68
2021/01/26 04:27:15;;;;;;;19.95;10.80;;;-3275.90;84.70;;;;;;5070414;28;20103;-67
2021/01/26 04:29:41;;;;;;;19.65;11.63;;;-3276.00;84.10;;;;;;5056671;28;20021;-68
2021/01/26 04:32:07;;;;;;;20.27;11.80;;;-3276.00;84.00;;;;;;5070681;28;20021;-67
2021/01/26 04:34:33;;;;;;;15.82;10.55;;;-3276.00;84.20;;;;;;5070580;28;20070;-67
2021/01/26 04:36:59;;;;;;;162.68;71.07;;;-3276.10;83.60;;;;;;5070543;28;20037;-67
2021/01/26 04:39:24;;;;;;;35.13;19.75;;;-3276.00;83.70;;;;;;5070518;28;20027;-67
2021/01/26 04:41:57;;;;;;;17.33;10.35;;;-3276.20;83.40;;;;;;5073420;28;20056;-67
2021/01/26 04:45:04;;;;;;;13.02;9.18;;;-3276.10;82.70;;;;;;5074538;28;20033;-67
2021/01/26 04:47:43;;;;;;;14.25;9.10;;;-3276.10;82.40;;;;;;5070744;28;20105;-68
2021/01/26 04:50:34;;;;;;;11.30;7.90;;;-3276.20;82.20;;;;;;5040524;28;20111;-68
2021/01/26 04:53:14;;;;;;;12.98;8.55;;;-3276.20;82.20;;;;;;5074447;28;20025;-68
2021/01/26 04:55:55;;;;;;;15.00;10.05;;;-3276.30;82.00;;;;;;5071325;28;20059;-68
2021/01/26 04:58:30;;;;;;;15.15;8.90;;;-3276.20;82.20;;;;;;5073786;28;20025;-67
2021/01/26 05:01:32;;;;;;;15.63;8.60;;;-3276.20;81.50;;;;;;5074030;28;20064;-69
2021/01/26 05:04:10;;;;;;;13.80;8.15;;;-3276.20;82.10;;;;;;5073950;28;20024;-69
2021/01/26 05:06:50;;;;;;;12.70;7.70;;;-3276.20;81.40;;;;;;5073658;28;20025;-69
2021/01/26 05:09:20;;;;;;;13.63;7.93;;;-3276.20;81.70;;;;;;5074070;28;20062;-68
2021/01/26 05:11:47;;;;;;;11.50;7.80;;;-3276.20;81.00;;;;;;5073745;28;20017;-69
2021/01/26 05:14:17;;;;;;;14.35;7.88;;;-3276.30;80.70;;;;;;5073741;28;20382;-69
2021/01/26 05:16:58;;;;;;;14.67;7.80;;;-3276.30;80.50;;;;;;5073560;28;20029;-67
2021/01/26 05:19:47;;;;;;;10.07;7.32;;;-3276.30;80.60;;;;;;5073999;28;20147;-69
2021/01/26 05:22:25;;;;;;;10.52;7.13;;;-3276.40;80.20;;;;;;5058103;28;20085;-69
2021/01/26 05:24:59;;;;;;;11.52;7.43;;;-3276.40;80.10;;;;;;5073697;28;20381;-69
2021/01/26 05:27:25;;;;;;;11.95;7.22;;;-3276.50;79.70;;;;;;5060690;28;20028;-69
2021/01/26 05:29:52;;;;;;;13.25;7.05;;;-3276.50;79.60;;;;;;5072884;28;20032;-67
2021/01/26 05:32:18;;;;;;;10.65;7.60;;;-3276.60;79.10;;;;;;5073551;28;20027;-69
2021/01/26 05:34:44;;;;;;;10.45;6.80;;;-3276.60;79.00;;;;;;5073375;28;20021;-68
2021/01/26 05:37:14;;;;;;;14.05;7.82;;;-3276.60;78.70;;;;;;5073146;28;20033;-70
2021/01/26 05:40:07;;;;;;;12.75;8.07;;;-3276.60;78.80;;;;;;5073182;28;20162;-68
2021/01/26 05:42:34;;;;;;;11.30;6.93;;;-3276.60;78.70;;;;;;5067824;28;20043;-68
2021/01/26 05:45:08;;;;;;;12.07;7.85;;;-3276.60;78.60;;;;;;5063039;28;20398;-69
2021/01/26 05:47:36;;;;;;;12.68;7.80;;;-3276.50;78.40;;;;;;5072870;28;20119;-68
2021/01/26 05:50:02;;;;;;;15.30;8.88;;;-3276.50;78.60;;;;;;5072927;28;20108;-68
2021/01/26 05:52:39;;;;;;;14.20;8.18;;;-3276.50;79.00;;;;;;5072399;28;20039;-68
2021/01/26 05:55:27;;;;;;;15.55;8.00;;;-3276.40;79.10;;;;;;5068749;28;20021;-68
2021/01/26 05:57:53;;;;;;;12.75;8.20;;;-3276.40;78.70;;;;;;5072621;28;20396;-68
2021/01/26 06:00:24;;;;;;;16.05;8.27;;;-3276.40;79.40;;;;;;5072921;28;20031;-68
2021/01/26 06:03:20;;;;;;;11.88;7.78;;;-3276.40;78.40;;;;;;5072760;28;20028;-68
2021/01/26 06:06:10;;;;;;;13.82;8.05;;;-3276.30;78.50;;;;;;5072578;28;20486;-67
2021/01/26 06:08:55;;;;;;;12.75;8.65;;;-3276.40;78.90;;;;;;5072835;28;20048;-69
2021/01/26 06:11:29;;;;;;;15.15;8.55;;;-3276.40;78.80;;;;;;5065199;28;20052;-68
2021/01/26 06:14:09;;;;;;;11.23;7.30;;;-3276.50;78.70;;;;;;5072548;28;20043;-67
2021/01/26 06:16:34;;;;;;;10.80;7.53;;;-3276.50;78.50;;;;;;5072258;28;20028;-70
2021/01/26 06:19:03;;;;;;;10.73;7.50;;;-3276.60;78.10;;;;;;5072549;28;20028;-68
2021/01/26 06:21:31;;;;;;;12.35;7.22;;;-3276.60;78.10;;;;;;5072246;28;20033;-68
2021/01/26 06:23:58;;;;;;;12.35;7.38;;;-3276.60;77.60;;;;;;5072381;28;20029;-70
2021/01/26 06:26:37;;;;;;;11.98;7.50;;;-3276.60;77.50;;;;;;5071862;28;20029;-68
2021/01/26 06:29:12;;;;;;;12.15;7.38;;;-3276.60;77.60;;;;;;5072335;28;20031;-68
2021/01/26 06:32:20;;;;;;;12.82;7.95;;;-3276.60;77.10;;;;;;5067204;28;20024;-68
2021/01/26 06:35:11;;;;;;;15.20;8.15;;;-3276.50;76.90;;;;;;5061200;28;20009;-70
2021/01/26 06:37:37;;;;;;;;;;;-3276.50;77.90;;;;;;5049727;28;20079;-68
2021/01/26 06:40:15;;;;;;;14.25;7.55;;;-3276.50;77.40;;;;;;5070501;28;19912;-69
2021/01/26 06:43:09;;;;;;;12.32;7.70;;;-3276.60;77.60;;;;;;5071848;28;20094;-66
2021/01/26 06:46:00;;;;;;;13.48;7.80;;;-3276.60;77.40;;;;;;5072382;28;20081;-67
2021/01/26 06:49:03;;;;;;;10.20;7.10;;;-3276.60;77.40;;;;;;5040104;28;20070;-68
2021/01/26 06:51:52;;;;;;;11.90;7.25;;;-3276.70;77.20;;;;;;5065751;28;20036;-68
2021/01/26 06:54:50;;;;;;;11.93;8.38;;;0.00;76.80;;;;;;5043993;28;20024;-68
2021/01/26 06:57:22;;;;;;;11.93;7.30;;;0.00;77.00;;;;;;5060598;28;20116;-67
2021/01/26 07:00:05;;;;;;;12.02;7.28;;;0.00;76.80;;;;;;5071717;28;20064;-68
2021/01/26 07:03:03;;;;;;;13.60;7.57;;;0.00;76.40;;;;;;5071409;28;20497;-68
2021/01/26 07:05:56;;;;;;;10.20;7.22;;;0.00;76.40;;;;;;5070714;28;20042;-68
2021/01/26 07:09:01;;;;;;;11.93;7.47;;;0.00;76.90;;;;;;5057077;28;20066;-68
2021/01/26 07:11:51;;;;;;;13.00;7.68;;;0.10;77.00;;;;;;5071243;28;20310;-67
2021/01/26 07:14:43;;;;;;;9.10;5.73;;;0.10;77.40;;;;;;5056795;28;20386;-68
2021/01/26 07:17:09;;;;;;;11.88;7.35;;;0.20;77.30;;;;;;5071379;28;20025;-68
2021/01/26 07:19:56;;;;;;;12.35;7.00;;;0.20;77.10;;;;;;5062326;28;20486;-67
2021/01/26 07:22:48;;;;;;;14.57;8.35;;;0.20;77.10;;;;;;5065728;28;20566;-70
2021/01/26 07:25:22;;;;;;;10.13;7.18;;;0.20;77.50;;;;;;5071433;28;20489;-68
2021/01/26 07:28:17;;;;;;;9.57;6.13;;;0.20;77.20;;;;;;5071417;28;20100;-71
2021/01/26 07:30:52;;;;;;;12.15;7.32;;;0.30;77.30;;;;;;5071301;28;20023;-70
2021/01/26 07:33:44;;;;;;;11.05;6.97;;;0.30;76.60;;;;;;5071679;28;20025;-71
2021/01/26 07:36:28;;;;;;;9.82;6.00;;;0.40;76.70;;;;;;5066708;28;20017;-71
2021/01/26 07:39:00;;;;;;;9.20;6.13;;;0.50;75.90;;;;;;5070124;28;20029;-70
2021/01/26 07:44:16;;;;;;;11.60;6.63;;;0.60;76.10;;;;;;5049425;28;20052;-69
2021/01/26 07:46:51;;;;;;;10.13;7.03;;;0.70;76.60;;;;;;5039026;28;20021;-70
2021/01/26 07:49:29;;;;;;;11.13;6.97;;;0.70;75.60;;;;;;5049781;28;20041;-69
2021/01/26 07:52:00;;;;;;;12.05;6.55;;;0.70;76.20;;;;;;5033344;28;20026;-69
2021/01/26 07:54:38;;;;;;;12.63;6.97;;;0.80;76.00;;;;;;5047761;28;20055;-69
2021/01/26 07:57:05;;;;;;;8.75;6.35;;;0.80;75.60;;;;;;5039686;28;20033;-69
2021/01/26 07:59:38;;;;;;;11.68;7.15;;;0.90;75.80;;;;;;5046767;28;20040;-69
2021/01/26 08:02:16;;;;;;;9.02;6.80;;;0.90;75.30;;;;;;5034783;28;20104;-71
2021/01/26 08:04:42;;;;;;;8.50;6.13;;;0.90;75.50;;;;;;5042548;28;20026;-70
2021/01/26 08:07:20;;;;;;;9.35;6.80;;;1.00;75.30;;;;;;5043751;28;20032;-72
2021/01/26 08:09:48;;;;;;;10.63;6.75;;;1.10;75.40;;;;;;5035475;28;20037;-73
2021/01/26 08:12:39;;;;;;;10.98;6.55;;;1.20;74.60;;;;;;5049957;28;20051;-72
2021/01/26 08:15:23;;;;;;;9.75;6.93;;;1.20;74.80;;;;;;5045219;28;20163;-72
2021/01/26 08:17:49;;;;;;;11.93;6.53;;;1.40;74.70;;;;;;5053716;28;20036;-74
2021/01/26 08:20:21;;;;;;;11.85;6.82;;;1.40;74.20;;;;;;5023235;28;20021;-73
2021/01/26 08:23:05;;;;;;;11.38;6.80;;;1.40;74.10;;;;;;5047974;28;20017;-72
2021/01/26 08:25:53;;;;;;;10.13;6.30;;;1.50;73.50;;;;;;5041052;28;20491;-74
2021/01/26 08:28:40;;;;;;;9.20;6.93;;;1.50;73.20;;;;;;5041344;28;20021;-73
2021/01/26 08:31:33;;;;;;;10.20;6.88;;;1.50;73.50;;;;;;5038117;28;20483;-73
2021/01/26 08:34:20;;;;;;;10.13;7.13;;;1.60;73.30;;;;;;5053634;28;20021;-70
2021/01/26 08:36:47;;;;;;;9.80;6.45;;;1.80;73.30;;;;;;5043631;28;20028;-69
2021/01/26 08:39:15;;;;;;;9.82;6.95;;;1.80;72.40;;;;;;5041933;28;20104;-69
2021/01/26 08:41:45;;;;;;;10.65;7.28;;;1.90;73.40;;;;;;5052771;28;20021;-70
2021/01/26 08:44:33;;;;;;;10.13;7.50;;;1.90;72.40;;;;;;5037992;28;20036;-71
2021/01/26 08:46:59;;;;;;;11.40;7.63;;;2.00;72.30;;;;;;5052846;28;20112;-70
2021/01/26 08:49:30;;;;;;;13.50;8.18;;;2.00;71.80;;;;;;5039947;28;20546;-71
2021/01/26 08:52:20;;;;;;;12.23;7.50;;;2.10;72.10;;;;;;5050884;28;20437;-71
2021/01/26 08:54:52;;;;;;;9.65;6.25;;;2.30;71.70;;;;;;5043224;28;20036;-71
2021/01/26 08:57:40;;;;;;;;;;;2.40;71.00;;;;;;5039546;28;20049;-72
2021/01/26 09:00:15;;;;;;;14.18;7.28;;;2.40;70.60;;;;;;5053049;28;19908;-71
2021/01/26 09:02:43;;;;;;;12.15;7.53;;;2.30;70.80;;;;;;5045805;28;20030;-72
2021/01/26 09:05:10;;;;;;;10.60;7.50;;;2.30;71.50;;;;;;5046279;28;20444;-71
2021/01/26 09:07:48;;;;;;;11.65;7.68;;;2.30;71.50;;;;;;5036573;28;20033;-73
2021/01/26 09:10:31;;;;;;;14.95;8.55;;;2.40;71.50;;;;;;5041328;28;20051;-71
2021/01/26 09:13:14;;;;;;;11.60;7.43;;;2.60;71.90;;;;;;5054202;28;20421;-70
2021/01/26 09:15:52;;;;;;;11.52;7.70;;;2.60;71.30;;;;;;5052717;28;20025;-71
2021/01/26 09:18:21;;;;;;;11.88;8.00;;;2.60;71.70;;;;;;5054418;28;20025;-72
2021/01/26 09:20:51;;;;;;;11.57;7.95;;;2.60;71.80;;;;;;5047568;28;20074;-73
2021/01/26 09:23:21;;;;;;;11.95;8.10;;;2.60;72.10;;;;;;5054354;28;20029;-72
2021/01/26 09:25:49;;;;;;;13.02;9.15;;;2.70;72.10;;;;;;5054494;28;20036;-71
2021/01/26 09:28:18;;;;;;;11.63;7.85;;;2.80;71.40;;;;;;5052877;28;20032;-70
2021/01/26 09:30:47;;;;;;;14.18;8.38;;;3.00;71.20;;;;;;5053097;28;20025;-70
2021/01/26 09:33:12;;;;;;;12.45;8.05;;;3.10;70.50;;;;;;5054046;28;20028;-70
2021/01/26 09:36:01;;;;;;;11.20;7.72;;;3.10;70.00;;;;;;5042461;28;20033;-73
2021/01/26 09:38:28;;;;;;;10.05;7.65;;;3.00;70.40;;;;;;5027258;28;20112;-71
2021/01/26 09:40:59;;;;;;;11.07;8.63;;;3.00;70.10;;;;;;5034247;28;20036;-72
2021/01/26 09:43:27;;;;;;;11.40;8.27;;;2.90;70.20;;;;;;5032361;28;20068;-71
2021/01/26 09:46:32;;;;;;;13.55;8.23;;;2.90;70.80;;;;;;5033938;28;20022;-71
2021/01/26 09:49:10;;;;;;;9.23;7.13;;;2.90;70.60;;;;;;5032857;28;20037;-71
2021/01/26 09:51:54;;;;;;;11.18;8.07;;;2.90;70.60;;;;;;5033960;28;20036;-70
2021/01/26 09:54:26;;;;;;;12.95;8.25;;;2.80;71.30;;;;;;5033632;28;20030;-69
2021/01/26 09:56:53;;;;;;;11.05;8.05;;;2.80;70.90;;;;;;5033545;28;20049;-70
2021/01/26 09:59:20;;;;;;;13.63;9.93;;;3.00;71.30;;;;;;5033435;28;20030;-71
2021/01/26 10:01:48;;;;;;;12.60;8.38;;;3.00;71.30;;;;;;5033469;28;20047;-69
2021/01/26 10:04:16;;;;;;;13.70;8.68;;;3.00;71.40;;;;;;5033947;28;20026;-71
2021/01/26 10:06:42;;;;;;;14.98;8.43;;;3.00;70.60;;;;;;5033967;28;20509;-72
2021/01/26 10:09:25;;;;;;;13.70;8.52;;;3.00;71.40;;;;;;5033574;28;20049;-72
2021/01/26 10:11:53;;;;;;;12.63;8.68;;;3.00;71.50;;;;;;5033117;28;20544;-75
2021/01/26 10:14:26;;;;;;;11.63;8.45;;;2.80;71.40;;;;;;5035834;28;20037;-72
2021/01/26 10:16:54;;;;;;;15.57;8.93;;;2.80;71.60;;;;;;5053271;28;20031;-72
2021/01/26 10:19:24;;;;;;;11.15;7.97;;;2.60;72.30;;;;;;5053031;28;20033;-74
2021/01/26 10:21:51;;;;;;;12.27;8.43;;;2.50;72.60;;;;;;5041340;28;20038;-72
2021/01/26 10:24:32;;;;;;;15.13;8.63;;;2.30;72.90;;;;;;5033121;28;20068;-72
2021/01/26 10:27:19;;;;;;;14.27;9.30;;;2.30;74.10;;;;;;5032414;28;20038;-71
2021/01/26 10:29:45;;;;;;;15.07;9.38;;;2.00;74.50;;;;;;5033745;28;20079;-72
2021/01/26 10:32:13;;;;;;;13.25;9.25;;;2.00;75.40;;;;;;5037765;28;20032;-72
2021/01/26 10:34:45;;;;;;;13.68;10.38;;;2.00;76.00;;;;;;5044364;28;20037;-72
2021/01/26 10:37:14;;;;;;;13.90;9.35;;;2.10;76.90;;;;;;5063888;28;20025;-72
2021/01/26 10:39:44;;;;;;;11.90;9.45;;;2.20;78.20;;;;;;5056459;28;20025;-72
2021/01/26 10:42:12;;;;;;;13.18;9.90;;;2.30;78.90;;;;;;5051372;28;20036;-72
2021/01/26 10:44:51;;;;;;;30.70;11.90;;;2.20;79.70;;;;;;5051490;28;20509;-72
2021/01/26 10:47:38;;;;;;;14.27;10.40;;;2.10;80.70;;;;;;5052350;28;20029;-72
2021/01/26 10:50:06;;;;;;;14.85;10.35;;;2.10;81.20;;;;;;5051533;28;20040;-71
2021/01/26 10:52:48;;;;;;;16.50;11.32;;;2.10;81.60;;;;;;5052857;28;20482;-72
2021/01/26 10:55:16;;;;;;;13.45;10.60;;;2.10;82.00;;;;;;5052642;28;20029;-72
2021/01/26 10:57:43;;;;;;;20.33;12.38;;;2.20;82.70;;;;;;5051914;28;20029;-69
2021/01/26 11:00:12;;;;;;;16.35;11.48;;;2.10;83.30;;;;;;5052143;28;20028;-72
2021/01/26 11:02:37;;;;;;;17.92;12.18;;;1.90;81.80;;;;;;5050851;28;20132;-71
2021/01/26 11:05:08;;;;;;;18.33;12.50;;;1.60;82.60;;;;;;5052332;28;20111;-73
2021/01/26 11:07:34;;;;;;;17.38;12.20;;;1.50;83.20;;;;;;5050440;28;20077;-72
2021/01/26 11:10:00;;;;;;;16.50;12.27;;;1.60;82.70;;;;;;5052023;28;20025;-71
2021/01/26 11:12:25;;;;;;;20.67;13.15;;;1.60;82.80;;;;;;5052066;28;20048;-71
2021/01/26 11:14:54;;;;;;;19.48;13.35;;;1.50;82.70;;;;;;5052940;28;20021;-71
2021/01/26 11:17:20;;;;;;;19.42;14.15;;;1.50;83.90;;;;;;5050797;28;20547;-73
2021/01/26 11:19:46;;;;;;;23.20;12.70;;;1.40;83.90;;;;;;5052566;28;20033;-72
2021/01/26 11:22:12;;;;;;;19.33;14.23;;;1.50;84.60;;;;;;5050709;28;20043;-71
2021/01/26 11:24:38;;;;;;;20.80;13.73;;;1.60;84.40;;;;;;5052401;28;20029;-72
2021/01/26 11:27:04;;;;;;;22.23;13.48;;;1.60;84.40;;;;;;5051660;28;20029;-71
2021/01/26 11:29:30;;;;;;;24.17;17.00;;;1.50;84.60;;;;;;5053258;28;20100;-72
2021/01/26 11:31:55;;;;;;;28.88;16.25;;;1.30;85.20;;;;;;5052738;28;20049;-75
2021/01/26 11:34:21;;;;;;;30.98;19.25;;;1.10;86.10;;;;;;5051959;28;20398;-73
2021/01/26 11:36:46;;;;;;;32.70;18.70;;;0.90;87.20;;;;;;5036210;28;20041;-74
2021/01/26 11:39:12;;;;;;;29.90;19.30;;;0.80;88.40;;;;;;5042488;28;20028;-70
2021/01/26 11:41:39;;;;;;;32.15;20.15;;;0.80;88.80;;;;;;5038794;28;20538;-70
2021/01/26 11:44:05;;;;;;;33.38;20.63;;;0.80;88.80;;;;;;5031539;28;20029;-70
2021/01/26 11:46:30;;;;;;;28.40;20.52;;;0.80;89.10;;;;;;5032159;28;20029;-72
2021/01/26 11:48:56;;;;;;;28.58;18.67;;;0.90;89.50;;;;;;5045687;28;20032;-72
2021/01/26 11:51:22;;;;;;;33.83;20.20;;;0.80;89.10;;;;;;5032897;28;20025;-70
2021/01/26 11:53:47;;;;;;;29.85;19.45;;;0.80;89.20;;;;;;5046604;28;20049;-70
2021/01/26 11:56:13;;;;;;;31.02;19.50;;;0.90;89.40;;;;;;5038724;28;20048;-72
2021/01/26 11:58:38;;;;;;;29.40;19.63;;;1.00;89.30;;;;;;5038560;28;20025;-70
2021/01/26 12:01:05;;;;;;;30.80;19.90;;;1.10;89.60;;;;;;5044835;28;20079;-70
2021/01/26 12:03:31;;;;;;;52.45;26.08;;;1.20;89.20;;;;;;5033255;28;20387;-70
2021/01/26 12:05:57;;;;;;;39.60;22.27;;;1.20;89.20;;;;;;5044218;28;20032;-70
2021/01/26 12:08:23;;;;;;;40.63;22.58;;;1.20;89.00;;;;;;5039604;28;20032;-70
2021/01/26 12:10:50;;;;;;;38.97;22.25;;;1.30;88.90;;;;;;5037029;28;20079;-70
2021/01/26 12:13:16;;;;;;;37.17;21.95;;;1.40;89.10;;;;;;5047354;28;20063;-71
2021/01/26 12:15:42;;;;;;;37.50;22.40;;;1.50;89.00;;;;;;5034510;28;20024;-70
2021/01/26 12:18:09;;;;;;;28.25;19.02;;;1.50;88.80;;;;;;5049090;28;20021;-70
2021/01/26 12:20:35;;;;;;;28.92;19.48;;;1.50;88.70;;;;;;5045135;28;20032;-72
2021/01/26 12:23:00;;;;;;;27.58;19.65;;;1.40;88.80;;;;;;5045119;28;20026;-72
2021/01/26 12:25:28;;;;;;;29.17;20.08;;;1.30;89.40;;;;;;5034232;28;20028;-71
2021/01/26 12:27:54;;;;;;;31.27;20.30;;;1.40;89.60;;;;;;5045329;28;20041;-70
2021/01/26 12:30:21;;;;;;;27.52;18.45;;;1.40;89.70;;;;;;5039553;28;20029;-70
2021/01/26 12:32:47;;;;;;;29.27;19.00;;;1.40;89.20;;;;;;5038295;28;20013;-71
2021/01/26 12:35:22;;;;;;;28.52;19.20;;;1.50;89.00;;;;;;5039026;28;20020;-70
2021/01/26 12:37:48;;;;;;;32.50;20.25;;;1.60;89.10;;;;;;5030424;28;20028;-71
2021/01/26 12:40:15;;;;;;;24.10;17.77;;;1.70;88.70;;;;;;5038620;28;20021;-71
2021/01/26 12:42:41;;;;;;;29.05;19.65;;;1.70;88.50;;;;;;5037562;28;20061;-70
2021/01/26 12:45:08;;;;;;;24.23;17.48;;;1.70;88.80;;;;;;5044554;28;20025;-72
2021/01/26 12:47:37;;;;;;;31.05;18.80;;;1.80;88.20;;;;;;5033518;28;20030;-71
2021/01/26 12:50:07;;;;;;;26.00;17.17;;;1.90;88.20;;;;;;5042536;28;20021;-71
2021/01/26 12:52:32;;;;;;;23.25;15.82;;;2.10;87.90;;;;;;5040015;28;20083;-71
2021/01/26 12:54:58;;;;;;;26.13;17.65;;;2.30;86.80;;;;;;5050483;28;20437;-71
2021/01/26 12:57:24;;;;;;;23.52;15.95;;;2.40;86.40;;;;;;5032745;28;20026;-71
2021/01/26 12:59:51;;;;;;;24.23;16.48;;;2.50;85.60;;;;;;5045994;28;20376;-70
2021/01/26 13:02:19;;;;;;;21.77;15.55;;;2.50;86.60;;;;;;5039632;28;20033;-71
2021/01/26 13:04:45;;;;;;;24.42;15.93;;;2.50;86.50;;;;;;5040273;28;20125;-70
2021/01/26 13:07:10;;;;;;;23.25;16.45;;;2.50;85.30;;;;;;5049557;28;20445;-70
2021/01/26 13:09:36;;;;;;;27.05;16.60;;;2.50;85.50;;;;;;5036191;28;20111;-72